createdAt,value
2024-02-09T00:02:22.069Z,33.37
2024-02-09T00:06:30.877Z,34.80
2024-02-09T00:10:41.613Z,34.97
2024-02-09T00:14:50.500Z,35.47
2024-02-09T00:18:59.369Z,34.87
2024-02-09T00:23:09.895Z,31.13
2024-02-09T00:27:20.952Z,32.13
2024-02-09T00:31:29.795Z,31.10
2024-02-09T00:35:41.007Z,24.50
2024-02-09T00:39:49.877Z,27.27
2024-02-09T00:44:00.066Z,30.97
2024-02-09T00:48:09.479Z,30.67
2024-02-09T00:52:18.315Z,28.20
2024-02-09T00:56:27.565Z,24.70
2024-02-09T01:00:41.801Z,26.90
2024-02-09T01:04:51.047Z,33.57
2024-02-09T01:08:59.821Z,29.60
2024-02-09T01:13:26.101Z,27.50
2024-02-09T01:17:53.627Z,28.17
2024-02-09T01:22:19.877Z,23.03
2024-02-09T01:26:46.309Z,27.70
2024-02-09T01:31:12.294Z,24.40
2024-02-09T01:35:39.790Z,29.93
2024-02-09T01:40:06.041Z,28.40
2024-02-09T01:44:32.365Z,26.17
2024-02-09T01:48:59.833Z,23.60
2024-02-09T01:53:27.780Z,29.60
2024-02-09T01:57:54.566Z,22.57
2024-02-09T02:02:21.164Z,25.30
2024-02-09T02:06:47.037Z,23.17
2024-02-09T02:11:14.753Z,28.50
2024-02-09T02:15:41.082Z,29.00
2024-02-09T02:20:07.555Z,28.73
2024-02-09T02:24:37.854Z,22.70
2024-02-09T02:29:05.241Z,27.17
2024-02-09T02:33:31.312Z,28.43
2024-02-09T02:37:57.579Z,24.67
2024-02-09T02:42:05.186Z,28.00
2024-02-09T02:46:18.349Z,26.67
2024-02-09T02:50:44.275Z,23.43
2024-02-09T02:55:10.445Z,29.80
2024-02-09T02:59:48.292Z,27.63
2024-02-09T03:04:15.704Z,32.60
2024-02-09T03:08:45.675Z,31.60
2024-02-09T03:12:53.605Z,24.83
2024-02-09T03:17:02.420Z,31.47
2024-02-09T03:21:21.591Z,27.43
2024-02-09T03:25:31.061Z,34.10
2024-02-09T03:29:41.359Z,37.50
2024-02-09T03:33:51.183Z,37.70
2024-02-09T03:38:01.453Z,31.97
2024-02-09T03:42:10.380Z,33.63
2024-02-09T03:46:20.972Z,49.37
2024-02-09T03:50:29.791Z,38.43
2024-02-09T03:54:39.967Z,48.57
2024-02-09T03:58:48.773Z,29.47
2024-02-09T04:02:57.718Z,34.97
2024-02-09T04:07:07.722Z,39.23
2024-02-09T04:11:25.490Z,38.93
2024-02-09T04:15:34.487Z,35.03
2024-02-09T04:19:43.424Z,40.60
2024-02-09T04:23:53.201Z,34.57
2024-02-09T04:28:05.551Z,34.83
2024-02-09T04:32:14.413Z,32.50
2024-02-09T04:36:23.152Z,32.73
2024-02-09T04:40:31.967Z,33.47
2024-02-09T04:44:42.134Z,31.23
2024-02-09T04:48:50.979Z,39.77
2024-02-09T04:52:59.777Z,37.83
2024-02-09T04:57:09.247Z,34.63
2024-02-09T05:01:29.598Z,35.17
2024-02-09T05:05:38.408Z,36.00
2024-02-09T05:09:47.299Z,34.00
2024-02-09T05:13:56.122Z,31.97
2024-02-09T05:18:06.491Z,32.53
2024-02-09T05:22:15.355Z,37.53
2024-02-09T05:26:24.247Z,35.73
2024-02-09T05:30:33.045Z,37.13
2024-02-09T05:34:47.553Z,33.60
2024-02-09T05:39:00.406Z,30.67
2024-02-09T05:43:09.393Z,37.80
2024-02-09T05:47:18.124Z,34.33
2024-02-09T05:51:28.337Z,34.30
2024-02-09T05:55:40.113Z,32.20
2024-02-09T05:59:48.945Z,42.73
2024-02-09T06:03:58.055Z,40.03
2024-02-09T06:08:10.842Z,39.27
2024-02-09T06:12:19.557Z,36.80
2024-02-09T06:16:28.375Z,41.67
2024-02-09T06:20:37.262Z,34.50
2024-02-09T06:24:47.583Z,42.90
2024-02-09T06:28:56.497Z,29.70
2024-02-09T06:33:05.514Z,36.83
2024-02-09T06:37:15.803Z,40.67
2024-02-09T06:41:26.015Z,42.87
2024-02-09T06:45:36.784Z,40.90
2024-02-09T06:49:47.344Z,49.90
2024-02-09T06:53:57.618Z,43.20
2024-02-09T06:58:08.463Z,41.90
2024-02-09T07:02:19.988Z,36.73
2024-02-09T07:06:29.196Z,29.63
2024-02-09T07:10:38.363Z,36.07
2024-02-09T07:14:48.987Z,41.40
2024-02-09T07:18:58.031Z,31.70
2024-02-09T07:23:07.326Z,31.97
2024-02-09T07:27:17.291Z,42.47
2024-02-09T07:31:28.150Z,43.33
2024-02-09T07:35:37.568Z,36.90
2024-02-09T07:39:46.640Z,29.87
2024-02-09T07:43:57.337Z,26.90
2024-02-09T07:48:08.755Z,27.67
2024-02-09T07:52:17.974Z,26.07
2024-02-09T07:56:27.013Z,32.90
2024-02-09T08:00:36.168Z,36.53
2024-02-09T08:04:47.381Z,43.90
2024-02-09T08:08:56.767Z,38.53
2024-02-09T08:13:06.425Z,37.73
2024-02-09T08:17:19.827Z,34.20
2024-02-09T08:21:30.513Z,33.77
2024-02-09T08:25:39.656Z,30.53
2024-02-09T08:29:55.955Z,31.53
2024-02-09T08:34:05.033Z,28.40
2024-02-09T08:38:15.784Z,42.27
2024-02-09T08:42:24.877Z,30.03
2024-02-09T08:46:34.276Z,30.87
2024-02-09T08:50:43.660Z,29.87
2024-02-09T08:54:54.436Z,32.50
2024-02-09T08:59:04.938Z,34.40
2024-02-09T09:03:15.494Z,29.10
2024-02-09T09:07:24.694Z,30.63
2024-02-09T09:11:35.624Z,24.37
2024-02-09T09:15:45.316Z,27.63
2024-02-09T09:19:54.815Z,26.87
2024-02-09T09:24:03.913Z,24.83
2024-02-09T09:28:15.709Z,27.57
2024-02-09T09:32:25.415Z,25.37
2024-02-09T09:36:35.152Z,24.30
2024-02-09T09:40:45.777Z,22.80
2024-02-09T09:44:56.559Z,25.80
2024-02-09T09:49:07.763Z,23.63
2024-02-09T09:53:18.520Z,21.43
2024-02-09T09:57:27.660Z,23.67
2024-02-09T10:01:40.228Z,25.20
2024-02-09T10:05:49.591Z,45.63
2024-02-09T10:09:59.582Z,27.57
2024-02-09T10:14:16.486Z,26.93
2024-02-09T10:18:27.348Z,22.57
2024-02-09T10:22:37.895Z,73.20
2024-02-09T10:26:51.290Z,29.77
2024-02-09T10:31:01.711Z,32.37
2024-02-09T10:35:12.593Z,32.43
2024-02-09T10:39:21.876Z,38.20
2024-02-09T10:43:36.653Z,27.00
2024-02-09T10:47:47.994Z,32.17
2024-02-09T10:52:02.221Z,30.17
2024-02-09T10:56:14.915Z,31.63
2024-02-09T11:00:24.059Z,36.67
2024-02-09T11:04:34.588Z,34.63
2024-02-09T11:08:48.450Z,40.47
2024-02-09T11:13:01.781Z,33.33
2024-02-09T11:17:10.840Z,36.37
2024-02-09T11:21:23.753Z,37.30
2024-02-09T11:25:36.165Z,44.00
2024-02-09T11:29:45.596Z,49.07
2024-02-09T11:38:06.835Z,37.70
2024-02-09T11:42:31.091Z,36.93
2024-02-09T11:46:45.052Z,32.53
2024-02-09T11:50:58.934Z,30.47
2024-02-09T11:55:08.901Z,34.33
2024-02-09T11:59:19.995Z,35.27
2024-02-09T12:03:29.490Z,37.90
2024-02-09T12:07:39.163Z,31.30
2024-02-09T12:11:48.591Z,36.93
2024-02-09T12:16:00.137Z,36.47
2024-02-09T12:20:12.078Z,37.00
2024-02-09T12:24:21.055Z,40.93
2024-02-09T12:28:34.346Z,29.00
2024-02-09T12:32:45.849Z,35.60
2024-02-09T12:37:01.110Z,34.77
2024-02-09T12:41:10.353Z,50.63
2024-02-09T12:45:20.507Z,39.87
2024-02-09T12:49:31.817Z,42.93
2024-02-09T12:53:42.274Z,34.67
2024-02-09T12:57:56.998Z,35.23
2024-02-09T13:02:10.053Z,30.33
2024-02-09T13:06:20.823Z,32.47
2024-02-09T13:10:29.858Z,31.97
2024-02-09T13:14:39.397Z,35.17
2024-02-09T13:18:48.492Z,39.00
2024-02-09T13:22:58.979Z,31.10
2024-02-09T13:27:08.444Z,33.03
2024-02-09T13:31:17.611Z,33.83
2024-02-09T13:35:28.216Z,32.93
2024-02-09T13:39:38.714Z,30.83
2024-02-09T13:43:47.768Z,30.63
2024-02-09T13:47:57.314Z,30.40
2024-02-09T13:52:07.086Z,25.90
2024-02-09T13:56:18.081Z,32.97
2024-02-09T14:00:27.227Z,35.50
2024-02-09T14:04:39.424Z,37.03
2024-02-09T14:08:49.321Z,32.73
2024-02-09T14:12:59.856Z,31.47
2024-02-09T14:17:09.037Z,27.13
2024-02-09T14:21:17.992Z,39.20
2024-02-09T14:25:27.281Z,28.50
2024-02-09T14:29:41.037Z,25.70
2024-02-09T14:33:50.378Z,25.23
2024-02-09T14:38:01.926Z,21.20
2024-02-09T14:42:13.274Z,25.67
2024-02-09T14:46:26.340Z,21.23
2024-02-09T14:50:35.599Z,21.50
2024-02-09T14:54:46.506Z,23.77
2024-02-09T14:58:56.658Z,21.57
2024-02-09T15:03:08.756Z,19.73
2024-02-09T15:07:21.304Z,24.50
2024-02-09T15:11:31.339Z,27.80
2024-02-09T15:15:44.327Z,22.40
2024-02-09T15:19:55.324Z,21.20
2024-02-09T15:24:04.372Z,24.10
2024-02-09T15:28:14.951Z,23.17
2024-02-09T15:32:24.092Z,25.30
2024-02-09T15:36:34.507Z,29.83
2024-02-09T15:40:43.454Z,24.47
2024-02-09T15:44:54.254Z,21.73
2024-02-09T15:49:03.241Z,22.33
2024-02-09T15:53:13.834Z,20.27
2024-02-09T15:57:24.754Z,20.93
2024-02-09T16:01:38.588Z,22.40
2024-02-09T16:05:47.868Z,15.87
2024-02-09T16:09:58.735Z,21.67
2024-02-09T16:14:11.818Z,19.17
2024-02-09T16:18:20.850Z,21.33
2024-02-09T16:22:31.428Z,16.63
2024-02-09T16:26:42.413Z,21.73
2024-02-09T16:30:51.341Z,19.13
2024-02-09T16:35:02.303Z,23.73
2024-02-09T16:39:14.745Z,16.93
2024-02-09T16:43:25.396Z,17.97
2024-02-09T16:47:35.469Z,27.40
2024-02-09T16:51:44.536Z,23.67
2024-02-09T16:55:54.057Z,22.17
2024-02-09T17:00:06.094Z,23.93
2024-02-09T17:04:15.210Z,19.80
2024-02-09T17:08:24.295Z,20.87
2024-02-09T17:12:33.441Z,20.30
2024-02-09T17:16:43.988Z,16.67
2024-02-09T17:20:53.302Z,20.37
2024-02-09T17:25:03.588Z,19.87
2024-02-09T17:29:12.634Z,28.17
2024-02-09T17:33:23.575Z,17.20
2024-02-09T17:37:32.559Z,22.87
2024-02-09T17:41:42.156Z,13.93
2024-02-09T17:45:51.161Z,14.73
2024-02-09T17:50:01.791Z,14.17
2024-02-09T17:54:10.935Z,14.23
2024-02-09T17:58:19.902Z,12.03
2024-02-09T18:02:28.949Z,10.97
2024-02-09T18:06:40.164Z,16.80
2024-02-09T18:10:49.406Z,24.40
2024-02-09T18:14:59.664Z,30.70
2024-02-09T18:19:09.941Z,21.50
2024-02-09T18:23:20.976Z,24.57
2024-02-09T18:27:31.551Z,18.00
2024-02-09T18:31:41.002Z,23.60
2024-02-09T18:35:54.208Z,21.33
2024-02-09T18:40:14.329Z,16.73
2024-02-09T18:44:23.371Z,20.40
2024-02-09T18:48:32.449Z,17.60
2024-02-09T18:52:43.674Z,13.73
2024-02-09T18:56:54.190Z,18.77
2024-02-09T19:01:03.139Z,21.77
2024-02-09T19:05:15.122Z,27.50
2024-02-09T19:09:24.290Z,29.87
2024-02-09T19:13:36.017Z,27.43
2024-02-09T19:17:48.678Z,20.23
2024-02-09T19:21:59.535Z,16.57
2024-02-09T19:26:10.065Z,8.60
2024-02-09T19:30:20.670Z,9.90
2024-02-09T19:34:29.890Z,7.83
2024-02-09T19:38:43.577Z,8.80
2024-02-09T19:42:53.871Z,14.83
2024-02-09T19:47:04.379Z,7.43
2024-02-09T19:51:14.809Z,13.77
2024-02-09T19:55:23.920Z,14.17
2024-02-09T19:59:34.288Z,20.90
2024-02-09T20:03:45.396Z,19.87
2024-02-09T20:07:54.331Z,16.53
2024-02-09T20:12:03.630Z,26.83
2024-02-09T20:16:12.595Z,22.17
2024-02-09T20:20:25.256Z,29.37
2024-02-09T20:24:37.112Z,29.20
2024-02-09T20:28:46.209Z,23.27
2024-02-09T20:32:55.826Z,14.20
2024-02-09T20:37:06.370Z,9.77
2024-02-09T20:41:18.877Z,7.07
2024-02-09T20:45:30.806Z,14.37
2024-02-09T20:49:42.797Z,13.43
2024-02-09T20:53:57.397Z,13.30
2024-02-09T20:58:08.700Z,16.07
2024-02-09T21:02:18.207Z,7.90
2024-02-09T21:06:30.217Z,14.87
2024-02-09T21:10:40.875Z,18.27
2024-02-09T21:14:49.951Z,14.47
2024-02-09T21:18:58.988Z,16.53
2024-02-09T21:23:09.353Z,13.70
2024-02-09T21:27:19.912Z,16.57
2024-02-09T21:31:28.887Z,9.27
2024-02-09T21:35:37.969Z,14.47
2024-02-09T21:39:46.880Z,19.87
2024-02-09T21:43:58.261Z,18.87
2024-02-09T21:48:07.943Z,17.27
2024-02-09T21:52:18.960Z,14.63
2024-02-09T21:56:28.739Z,12.43
2024-02-09T22:00:42.882Z,13.80
2024-02-09T22:04:53.217Z,21.07
2024-02-09T22:09:02.254Z,13.57
2024-02-09T22:13:11.362Z,7.80
2024-02-09T22:17:21.892Z,5.07
2024-02-09T22:21:30.953Z,3.67
2024-02-09T22:25:43.117Z,4.20
2024-02-09T22:29:53.747Z,4.00
2024-02-09T22:34:04.268Z,2.50
2024-02-09T22:38:15.311Z,2.93
2024-02-09T22:42:24.996Z,3.20
2024-02-09T22:46:35.202Z,4.07
2024-02-09T22:50:45.859Z,4.33
2024-02-09T22:54:57.023Z,2.93
2024-02-09T22:59:06.136Z,5.07
2024-02-09T23:03:15.146Z,2.40
2024-02-09T23:07:25.962Z,3.77
2024-02-09T23:11:35.081Z,2.60
2024-02-09T23:15:44.337Z,4.97
2024-02-09T23:19:54.383Z,3.73
2024-02-09T23:24:05.029Z,3.93
2024-02-09T23:28:14.112Z,5.40
2024-02-09T23:32:22.958Z,5.77
2024-02-09T23:36:34.549Z,6.73
2024-02-09T23:40:46.037Z,6.03
2024-02-09T23:44:54.784Z,5.90
2024-02-09T23:49:04.122Z,9.70
2024-02-09T23:53:15.339Z,9.03
2024-02-09T23:57:25.897Z,10.47
